Time,TemperatureF,DewpointF,PressureIn,WindDirection,WindDirectionDegrees,WindSpeedMPH,WindSpeedGustMPH,Humidity,HourlyPrecipIn,Conditions,Clouds,dailyrainin,SoftwareType,DateUTC
2013-05-26 00:01:00,45.0,39.0,-100.00,SE,143,7.0,8.0,79,-99.99,,,-99.99,,2013-05-26 07:01:00,
2013-05-26 00:11:00,45.0,38.0,-100.00,SE,137,6.0,8.0,77,-99.99,,,-99.99,,2013-05-26 07:11:00,
2013-05-26 00:21:00,45.0,38.0,-100.00,SE,137,6.0,8.0,77,-99.99,,,-99.99,,2013-05-26 07:21:00,
2013-05-26 00:30:00,44.0,36.0,-100.00,SE,141,7.0,9.0,72,-99.99,,,-99.99,,2013-05-26 07:30:00,
2013-05-26 00:31:00,45.0,38.0,-100.00,SE,137,6.0,8.0,77,-99.99,,,-99.99,,2013-05-26 07:31:00,
2013-05-26 00:42:00,45.0,37.0,-100.00,SE,129,5.0,6.0,72,-99.99,,,-99.99,,2013-05-26 07:42:00,
2013-05-26 00:52:00,44.0,36.0,-100.00,SE,141,7.0,9.0,72,-99.99,,,-99.99,,2013-05-26 07:52:00,
2013-05-26 01:01:00,44.0,36.0,-100.00,SE,141,7.0,9.0,72,-99.99,,,-99.99,,2013-05-26 08:01:00,
2013-05-26 01:11:00,44.0,36.0,-100.00,SE,141,7.0,9.0,72,-99.99,,,-99.99,,2013-05-26 08:11:00,
2013-05-26 01:21:00,44.0,36.0,-100.00,SE,141,7.0,9.0,72,-99.99,,,-99.99,,2013-05-26 08:21:00,
2013-05-26 01:50:00,43.0,32.0,-100.00,SE,131,6.0,7.0,64,-99.99,,,-99.99,,2013-05-26 08:50:00,
2013-05-26 02:11:00,43.0,32.0,-100.00,SE,131,6.0,7.0,64,-99.99,,,-99.99,,2013-05-26 09:11:00,
2013-05-26 02:21:00,43.0,32.0,-100.00,SE,131,6.0,7.0,64,-99.99,,,-99.99,,2013-05-26 09:21:00,
2013-05-26 02:33:00,43.0,32.0,-100.00,SE,131,6.0,7.0,64,-99.99,,,-99.99,,2013-05-26 09:33:00,
2013-05-26 02:42:00,43.0,32.0,-100.00,SE,131,6.0,7.0,64,-99.99,,,-99.99,,2013-05-26 09:42:00,
2013-05-26 03:52:00,43.0,30.0,-100.00,ESE,117,6.0,9.0,60,-99.99,,,-99.99,,2013-05-26 10:52:00,
2013-05-26 04:03:00,43.0,30.0,-100.00,ESE,116,6.0,7.0,59,-99.99,,,-99.99,,2013-05-26 11:03:00,
2013-05-26 04:11:00,43.0,30.0,-100.00,ESE,116,6.0,7.0,59,-99.99,,,-99.99,,2013-05-26 11:11:00,
2013-05-26 04:22:00,43.0,30.0,-100.00,ESE,116,6.0,7.0,59,-99.99,,,-99.99,,2013-05-26 11:22:00,
2013-05-26 04:32:00,43.0,30.0,-100.00,ESE,116,6.0,7.0,59,-99.99,,,-99.99,,2013-05-26 11:32:00,
2013-05-26 04:42:00,43.0,29.0,-100.00,ESE,121,5.0,6.0,58,-99.99,,,-99.99,,2013-05-26 11:42:00,
2013-05-26 04:52:00,44.0,29.0,-100.00,ESE,103,6.0,7.0,56,-99.99,,,-99.99,,2013-05-26 11:52:00,
2013-05-26 05:01:00,43.0,28.0,-100.00,ESE,114,6.0,7.0,56,-99.99,,,-99.99,,2013-05-26 12:01:00,
2013-05-26 05:11:00,43.0,28.0,-100.00,ESE,114,6.0,7.0,56,-99.99,,,-99.99,,2013-05-26 12:11:00,
2013-05-26 05:21:00,43.0,28.0,-100.00,ESE,114,6.0,7.0,56,-99.99,,,-99.99,,2013-05-26 12:21:00,
2013-05-26 05:31:00,42.0,27.0,-100.00,ESE,114,6.0,8.0,55,-99.99,,,-99.99,,2013-05-26 12:31:00,
2013-05-26 05:41:00,44.0,26.0,-100.00,ESE,107,5.0,6.0,49,-99.99,,,-99.99,,2013-05-26 12:41:00,
2013-05-26 05:52:00,47.0,26.0,-100.00,ESE,109,3.0,4.0,43,-99.99,,,-99.99,,2013-05-26 12:52:00,
2013-05-26 06:02:00,46.0,26.0,-100.00,East,99,3.0,4.0,45,-99.99,,,-99.99,,2013-05-26 13:02:00,
2013-05-26 06:11:00,43.0,25.0,-100.00,ESE,115,4.0,5.0,49,-99.99,,,-99.99,,2013-05-26 13:11:00,
2013-05-26 06:21:00,43.0,26.0,-100.00,ESE,118,5.0,5.0,50,-99.99,,,-99.99,,2013-05-26 13:21:00,
2013-05-26 06:32:00,41.0,26.0,-100.00,SE,125,5.0,6.0,55,-99.99,,,-99.99,,2013-05-26 13:32:00,
2013-05-26 06:42:00,41.0,27.0,-100.00,SE,131,5.0,6.0,56,-99.99,,,-99.99,,2013-05-26 13:42:00,
2013-05-26 06:52:00,41.0,27.0,-100.00,SE,131,5.0,6.0,56,-99.99,,,-99.99,,2013-05-26 13:52:00,
2013-05-26 07:01:00,42.0,27.0,-100.00,SE,142,7.0,9.0,54,-99.99,,,-99.99,,2013-05-26 14:01:00,
2013-05-26 07:11:00,43.0,26.0,-100.00,SE,140,6.0,8.0,51,-99.99,,,-99.99,,2013-05-26 14:11:00,
2013-05-26 07:21:00,44.0,28.0,-100.00,SE,128,5.0,6.0,52,-99.99,,,-99.99,,2013-05-26 14:21:00,
2013-05-26 07:32:00,46.0,27.0,-100.00,SE,126,6.0,7.0,48,-99.99,,,-99.99,,2013-05-26 14:32:00,
2013-05-26 07:41:00,47.0,28.0,-100.00,SE,135,6.0,7.0,47,-99.99,,,-99.99,,2013-05-26 14:41:00,
2013-05-26 07:51:00,48.0,27.0,-100.00,SE,136,5.0,6.0,44,-99.99,,,-99.99,,2013-05-26 14:51:00,
2013-05-26 08:01:00,48.0,27.0,-100.00,SE,136,5.0,6.0,44,-99.99,,,-99.99,,2013-05-26 15:01:00,
2013-05-26 08:11:00,53.0,29.0,-100.00,ESE,117,4.0,6.0,39,-99.99,,,-99.99,,2013-05-26 15:11:00,
2013-05-26 08:22:00,56.0,29.0,-100.00,SE,140,2.0,5.0,36,-99.99,,,-99.99,,2013-05-26 15:22:00,
2013-05-26 08:33:00,58.0,20.0,-100.00,SE,142,2.0,4.0,23,-99.99,,,-99.99,,2013-05-26 15:33:00,
2013-05-26 08:43:00,58.0,20.0,-100.00,SE,142,2.0,4.0,23,-99.99,,,-99.99,,2013-05-26 15:43:00,
2013-05-26 08:53:00,57.0,27.0,-100.00,West,269,5.0,7.0,32,-99.99,,,-99.99,,2013-05-26 15:53:00,
2013-05-26 09:03:00,56.0,33.0,-100.00,West,265,5.0,7.0,41,-99.99,,,-99.99,,2013-05-26 16:03:00,
2013-05-26 09:12:00,57.0,30.0,-100.00,West,270,5.0,7.0,35,-99.99,,,-99.99,,2013-05-26 16:12:00,
2013-05-26 09:23:00,57.0,30.0,-100.00,West,270,5.0,7.0,35,-99.99,,,-99.99,,2013-05-26 16:23:00,
2013-05-26 09:33:00,57.0,34.0,-100.00,NNW,344,3.0,5.0,41,-99.99,,,-99.99,,2013-05-26 16:33:00,
2013-05-26 09:42:00,59.0,33.0,-100.00,NNW,339,4.0,7.0,37,-99.99,,,-99.99,,2013-05-26 16:42:00,
2013-05-26 09:52:00,59.0,37.0,-100.00,NW,306,5.0,8.0,44,-99.99,,,-99.99,,2013-05-26 16:52:00,
2013-05-26 10:02:00,59.0,38.0,-100.00,West,270,4.0,7.0,46,-99.99,,,-99.99,,2013-05-26 17:02:00,
2013-05-26 10:11:00,59.0,37.0,-100.00,West,264,5.0,8.0,43,-99.99,,,-99.99,,2013-05-26 17:11:00,
2013-05-26 10:22:00,60.0,34.0,-100.00,West,275,6.0,10.0,37,-99.99,,,-99.99,,2013-05-26 17:22:00,
2013-05-26 10:32:00,60.0,32.0,-100.00,WNW,294,6.0,9.0,35,-99.99,,,-99.99,,2013-05-26 17:32:00,
2013-05-26 10:42:00,61.0,34.0,-100.00,West,279,6.0,10.0,36,-99.99,,,-99.99,,2013-05-26 17:42:00,
2013-05-26 10:52:00,61.0,36.0,-100.00,West,277,7.0,11.0,40,-99.99,,,-99.99,,2013-05-26 17:52:00,
2013-05-26 11:01:00,61.0,36.0,-100.00,West,277,7.0,11.0,40,-99.99,,,-99.99,,2013-05-26 18:01:00,
2013-05-26 11:11:00,61.0,39.0,-100.00,West,265,7.0,12.0,44,-99.99,,,-99.99,,2013-05-26 18:11:00,
2013-05-26 11:21:00,62.0,40.0,-100.00,West,269,7.0,12.0,45,-99.99,,,-99.99,,2013-05-26 18:21:00,
2013-05-26 11:31:00,62.0,41.0,-100.00,West,265,7.0,12.0,46,-99.99,,,-99.99,,2013-05-26 18:31:00,
2013-05-26 11:42:00,62.0,42.0,-100.00,WNW,283,8.0,12.0,47,-99.99,,,-99.99,,2013-05-26 18:42:00,
2013-05-26 11:52:00,62.0,42.0,-100.00,WNW,283,8.0,12.0,47,-99.99,,,-99.99,,2013-05-26 18:52:00,
2013-05-26 12:01:00,62.0,42.0,-100.00,WNW,283,9.0,15.0,47,-99.99,,,-99.99,,2013-05-26 19:01:00,
2013-05-26 12:11:00,62.0,42.0,-100.00,WNW,283,9.0,15.0,47,-99.99,,,-99.99,,2013-05-26 19:11:00,
2013-05-26 12:21:00,63.0,43.0,-100.00,West,272,9.0,14.0,48,-99.99,,,-99.99,,2013-05-26 19:21:00,
2013-05-26 12:32:00,63.0,43.0,-100.00,West,272,9.0,14.0,48,-99.99,,,-99.99,,2013-05-26 19:32:00,
2013-05-26 12:42:00,63.0,43.0,-100.00,West,272,9.0,14.0,48,-99.99,,,-99.99,,2013-05-26 19:42:00,
2013-05-26 12:50:00,64.0,41.0,-100.00,WNW,291,10.0,16.0,43,-99.99,,,-99.99,,2013-05-26 19:50:00,
2013-05-26 12:52:00,64.0,42.0,-100.00,West,274,9.0,15.0,45,-99.99,,,-99.99,,2013-05-26 19:52:00,
2013-05-26 13:02:00,64.0,42.0,-100.00,WNW,292,8.0,18.0,44,-99.99,,,-99.99,,2013-05-26 20:02:00,
2013-05-26 13:11:00,64.0,41.0,-100.00,WNW,291,10.0,16.0,43,-99.99,,,-99.99,,2013-05-26 20:11:00,
2013-05-26 13:21:00,64.0,41.0,-100.00,WNW,291,10.0,16.0,43,-99.99,,,-99.99,,2013-05-26 20:21:00,
2013-05-26 13:32:00,64.0,41.0,-100.00,WNW,291,10.0,16.0,43,-99.99,,,-99.99,,2013-05-26 20:32:00,
2013-05-26 13:41:00,64.0,41.0,-100.00,WNW,291,10.0,16.0,43,-99.99,,,-99.99,,2013-05-26 20:41:00,
2013-05-26 16:02:00,64.0,44.0,-100.00,WNW,301,11.0,16.0,49,-99.99,,,-99.99,,2013-05-26 23:02:00,
2013-05-26 16:11:00,64.0,44.0,-100.00,WNW,301,11.0,16.0,49,-99.99,,,-99.99,,2013-05-26 23:11:00,
2013-05-26 16:22:00,64.0,44.0,-100.00,NW,306,10.0,15.0,49,-99.99,,,-99.99,,2013-05-26 23:22:00,
2013-05-26 16:32:00,64.0,44.0,-100.00,NW,306,10.0,15.0,49,-99.99,,,-99.99,,2013-05-26 23:32:00,
2013-05-26 16:42:00,64.0,45.0,-100.00,WNW,298,10.0,16.0,50,-99.99,,,-99.99,,2013-05-26 23:42:00,
2013-05-26 16:51:00,64.0,44.0,-100.00,WNW,293,9.0,15.0,49,-99.99,,,-99.99,,2013-05-26 23:51:00,
2013-05-26 17:02:00,64.0,44.0,-100.00,WNW,293,9.0,15.0,49,-99.99,,,-99.99,,2013-05-27 00:02:00,
2013-05-26 17:11:00,64.0,45.0,-100.00,NW,305,11.0,16.0,50,-99.99,,,-99.99,,2013-05-27 00:11:00,
2013-05-26 17:21:00,64.0,44.0,-100.00,WNW,302,9.0,13.0,49,-99.99,,,-99.99,,2013-05-27 00:21:00,
2013-05-26 17:31:00,64.0,44.0,-100.00,WNW,302,9.0,13.0,49,-99.99,,,-99.99,,2013-05-27 00:31:00,
2013-05-26 17:41:00,64.0,45.0,-100.00,WNW,301,9.0,15.0,50,-99.99,,,-99.99,,2013-05-27 00:41:00,
2013-05-26 17:52:00,64.0,45.0,-100.00,WNW,295,8.0,12.0,50,-99.99,,,-99.99,,2013-05-27 00:52:00,
2013-05-26 18:01:00,63.0,44.0,-100.00,WNW,296,9.0,12.0,50,-99.99,,,-99.99,,2013-05-27 01:01:00,
2013-05-26 18:11:00,63.0,44.0,-100.00,WNW,302,8.0,10.0,50,-99.99,,,-99.99,,2013-05-27 01:11:00,
2013-05-26 18:21:00,63.0,44.0,-100.00,WNW,302,7.0,10.0,49,-99.99,,,-99.99,,2013-05-27 01:21:00,
2013-05-26 18:31:00,63.0,44.0,-100.00,WNW,302,7.0,10.0,49,-99.99,,,-99.99,,2013-05-27 01:31:00,
2013-05-26 18:42:00,63.0,44.0,-100.00,WNW,300,8.0,12.0,50,-99.99,,,-99.99,,2013-05-27 01:42:00,
2013-05-26 18:52:00,62.0,44.0,-100.00,WNW,299,8.0,10.0,51,-99.99,,,-99.99,,2013-05-27 01:52:00,
2013-05-26 19:01:00,62.0,44.0,-100.00,WNW,302,7.0,10.0,52,-99.99,,,-99.99,,2013-05-27 02:01:00,
2013-05-26 19:11:00,61.0,44.0,-100.00,NW,306,7.0,9.0,54,-99.99,,,-99.99,,2013-05-27 02:11:00,
2013-05-26 19:21:00,60.0,44.0,-100.00,NW,308,6.0,8.0,55,-99.99,,,-99.99,,2013-05-27 02:21:00,
2013-05-26 19:31:00,60.0,45.0,-100.00,WNW,292,5.0,7.0,57,-99.99,,,-99.99,,2013-05-27 02:31:00,
2013-05-26 19:42:00,59.0,44.0,-100.00,West,281,4.0,5.0,58,-99.99,,,-99.99,,2013-05-27 02:42:00,
2013-05-26 19:52:00,58.0,44.0,-100.00,West,281,4.0,5.0,60,-99.99,,,-99.99,,2013-05-27 02:52:00,
2013-05-26 20:02:00,58.0,45.0,-100.00,West,280,4.0,5.0,62,-99.99,,,-99.99,,2013-05-27 03:02:00,
2013-05-26 20:11:00,57.0,45.0,-100.00,NW,309,2.0,3.0,64,-99.99,,,-99.99,,2013-05-27 03:11:00,
2013-05-26 20:21:00,56.0,45.0,-100.00,NW,312,2.0,3.0,66,-99.99,,,-99.99,,2013-05-27 03:21:00,
2013-05-26 20:33:00,56.0,46.0,-100.00,NW,312,2.0,3.0,68,-99.99,,,-99.99,,2013-05-27 03:33:00,
2013-05-26 20:42:00,55.0,45.0,-100.00,NNW,344,2.0,3.0,68,-99.99,,,-99.99,,2013-05-27 03:42:00,
2013-05-26 20:53:00,54.0,44.0,-100.00,SE,141,1.0,1.0,69,-99.99,,,-99.99,,2013-05-27 03:53:00,
2013-05-26 21:02:00,54.0,45.0,-100.00,SE,139,0.0,2.0,71,-99.99,,,-99.99,,2013-05-27 04:02:00,
2013-05-26 21:12:00,53.0,45.0,-100.00,NE,49,1.0,2.0,73,-99.99,,,-99.99,,2013-05-27 04:12:00,
2013-05-26 21:22:00,53.0,45.0,-100.00,NNW,337,1.0,2.0,73,-99.99,,,-99.99,,2013-05-27 04:22:00,
2013-05-26 21:33:00,53.0,45.0,-100.00,NE,52,1.0,2.0,73,-99.99,,,-99.99,,2013-05-27 04:33:00,
2013-05-26 21:42:00,53.0,44.0,-100.00,ENE,68,2.0,4.0,72,-99.99,,,-99.99,,2013-05-27 04:42:00,
2013-05-26 21:52:00,53.0,44.0,-100.00,ENE,68,2.0,4.0,72,-99.99,,,-99.99,,2013-05-27 04:52:00,
2013-05-26 22:02:00,53.0,44.0,-100.00,ENE,68,2.0,4.0,72,-99.99,,,-99.99,,2013-05-27 05:02:00,
2013-05-26 22:12:00,51.0,44.0,-100.00,SE,129,4.0,6.0,76,-99.99,,,-99.99,,2013-05-27 05:12:00,
2013-05-26 22:21:00,51.0,44.0,-100.00,ESE,117,5.0,5.0,76,-99.99,,,-99.99,,2013-05-27 05:21:00,
2013-05-26 22:30:00,51.0,43.0,-100.00,ESE,110,4.0,5.0,73,-99.99,,,-99.99,,2013-05-27 05:30:00,
2013-05-26 22:32:00,52.0,44.0,-100.00,ESE,114,4.0,5.0,74,-99.99,,,-99.99,,2013-05-27 05:32:00,
2013-05-26 22:42:00,50.0,42.0,-100.00,ESE,114,4.0,4.0,75,-99.99,,,-99.99,,2013-05-27 05:42:00,
2013-05-26 22:52:00,51.0,43.0,-100.00,ESE,110,4.0,5.0,73,-99.99,,,-99.99,,2013-05-27 05:52:00,
2013-05-26 23:01:00,51.0,43.0,-100.00,ESE,110,4.0,5.0,73,-99.99,,,-99.99,,2013-05-27 06:01:00,
2013-05-26 23:11:00,51.0,43.0,-100.00,ESE,110,4.0,5.0,73,-99.99,,,-99.99,,2013-05-27 06:11:00,
2013-05-26 23:21:00,51.0,43.0,-100.00,ESE,110,4.0,5.0,73,-99.99,,,-99.99,,2013-05-27 06:21:00,